createdAt,value
2023-05-21T15:07:56.203Z,96743.31
2023-05-21T15:09:58.849Z,96746.06
2023-05-21T15:12:01.486Z,96729.06
2023-05-21T15:14:04.098Z,96740.38
2023-05-21T15:16:07.188Z,96725.16
2023-05-21T15:18:09.937Z,96737.44
2023-05-21T15:20:12.841Z,96732.97
2023-05-21T15:22:15.421Z,96731.97
2023-05-21T15:24:19.412Z,96728.47
2023-05-21T15:26:22.745Z,96732.97
2023-05-21T15:28:25.359Z,96731.28
2023-05-21T15:30:28.202Z,96731.13
2023-05-21T15:32:31.701Z,96725.00
2023-05-21T15:34:34.357Z,96728.63
2023-05-21T15:36:37.540Z,96729.63
2023-05-21T15:38:40.207Z,96732.41
2023-05-21T15:40:44.331Z,96730.72
2023-05-21T15:42:46.926Z,96737.84
2023-05-21T15:44:49.543Z,96730.72
2023-05-21T15:46:53.787Z,96735.22
2023-05-21T15:48:56.454Z,96729.91
2023-05-21T15:50:59.029Z,96736.03
2023-05-21T15:53:01.589Z,96736.03
2023-05-21T15:55:04.795Z,96734.34
2023-05-21T15:57:08.723Z,96736.16
2023-05-21T15:59:11.315Z,96738.81
2023-05-21T16:01:13.992Z,96735.34
2023-05-21T16:03:16.754Z,96738.66
2023-05-21T16:05:19.444Z,96743.16
2023-05-21T16:07:24.114Z,96738.81
2023-05-21T16:09:27.746Z,96735.47
2023-05-21T16:11:31.063Z,96739.09
2023-05-21T16:13:35.012Z,96743.41
2023-05-21T16:15:38.271Z,96741.19
2023-05-21T16:17:41.000Z,96740.84
2023-05-21T16:19:43.662Z,96736.94
2023-05-21T16:21:46.301Z,96743.03
2023-05-21T16:23:48.914Z,96743.69
2023-05-21T16:25:51.641Z,96745.63
2023-05-21T16:27:54.232Z,96741.81
2023-05-21T16:29:58.304Z,96738.31
2023-05-21T16:32:01.034Z,96743.78
2023-05-21T16:34:04.652Z,96735.81
2023-05-21T16:36:07.366Z,96739.31
2023-05-21T16:38:09.995Z,96737.78
2023-05-21T16:40:14.767Z,96739.47
2023-05-21T16:42:17.777Z,96730.66
2023-05-21T16:44:20.437Z,96732.47
2023-05-21T16:46:26.506Z,96731.50
2023-05-21T16:48:29.160Z,96736.81
2023-05-21T16:50:31.748Z,96733.47
2023-05-21T16:52:34.315Z,96731.81
2023-05-21T16:54:36.900Z,96739.06
2023-05-21T16:56:39.501Z,96735.31
2023-05-21T16:58:42.124Z,96739.53
2023-05-21T17:00:45.612Z,96734.78
2023-05-21T17:02:49.676Z,96734.13
2023-05-21T17:04:52.339Z,96736.38
2023-05-21T17:06:54.921Z,96730.53
2023-05-21T17:08:57.653Z,96732.63
2023-05-21T17:11:00.299Z,96725.94
2023-05-21T17:13:17.764Z,96734.19
2023-05-21T17:15:24.680Z,96734.03
2023-05-21T17:17:27.421Z,96739.34
2023-05-21T17:19:31.796Z,96734.34
2023-05-21T17:21:34.574Z,96730.13
2023-05-21T17:23:37.615Z,96728.06
2023-05-21T17:25:40.889Z,96739.22
2023-05-21T17:27:43.716Z,96732.41
2023-05-21T17:29:46.408Z,96726.69
2023-05-21T17:31:49.098Z,96731.56
2023-05-21T17:33:51.796Z,96741.31
2023-05-21T17:35:56.909Z,96737.56
2023-05-21T17:37:59.504Z,96741.34
2023-05-21T17:40:05.517Z,96747.34
2023-05-21T17:42:08.355Z,96744.41
2023-05-21T17:44:11.411Z,96748.16
2023-05-21T17:46:16.707Z,96747.88
2023-05-21T17:48:19.384Z,96755.00
2023-05-21T17:50:21.979Z,96754.59
2023-05-21T17:52:26.917Z,96753.06
2023-05-21T17:54:29.530Z,96753.75
2023-05-21T17:56:34.307Z,96754.47
2023-05-21T17:58:36.899Z,96759.06
2023-05-21T18:00:39.555Z,96765.88
2023-05-21T18:02:42.266Z,96761.41
2023-05-21T18:04:44.912Z,96760.00
2023-05-21T18:06:47.562Z,96760.53
2023-05-21T18:08:51.496Z,96756.44
2023-05-21T18:10:54.154Z,96761.28
2023-05-21T18:12:56.983Z,96760.59
2023-05-21T18:14:59.588Z,96756.38
2023-05-21T18:17:02.352Z,96755.28
2023-05-21T18:19:06.688Z,96750.50
2023-05-21T18:21:09.682Z,96753.31
2023-05-21T18:23:12.548Z,96754.56
2023-05-21T18:25:16.570Z,96749.91
2023-05-21T18:27:19.156Z,96751.28
2023-05-21T18:29:21.753Z,96751.28
2023-05-21T18:31:24.684Z,96753.22
2023-05-21T18:33:27.470Z,96749.56
2023-05-21T18:35:32.908Z,96758.44
2023-05-21T18:37:35.481Z,96750.03
2023-05-21T18:39:38.093Z,96753.59
2023-05-21T18:41:42.067Z,96758.41
2023-05-21T18:43:44.758Z,96765.78
2023-05-21T18:45:48.091Z,96764.38
2023-05-21T18:47:50.699Z,96766.56
2023-05-21T18:49:53.390Z,96763.03
2023-05-21T18:51:56.387Z,96761.63
2023-05-21T18:53:59.047Z,96763.69
2023-05-21T18:56:01.647Z,96771.03
2023-05-21T18:58:05.681Z,96768.94
2023-05-21T19:00:09.458Z,96770.66
2023-05-21T19:02:12.232Z,96775.75
2023-05-21T19:04:15.408Z,96777.94
2023-05-21T19:06:18.094Z,96780.56
2023-05-21T19:08:20.706Z,96777.44
2023-05-21T19:10:23.407Z,96777.06
2023-05-21T19:12:26.039Z,96781.53
2023-05-21T19:14:29.961Z,96786.81
2023-05-21T19:16:32.719Z,96785.75
2023-05-21T19:18:35.354Z,96778.56
2023-05-21T19:20:40.197Z,96776.72
2023-05-21T19:22:42.840Z,96785.00
2023-05-21T19:24:46.980Z,96787.63
2023-05-21T19:26:49.596Z,96787.28
2023-05-21T19:28:53.632Z,96778.97
2023-05-21T19:30:58.329Z,96782.00
2023-05-21T19:33:00.972Z,96788.13
2023-05-21T19:35:04.650Z,96782.84
2023-05-21T19:37:08.075Z,96787.88
2023-05-21T19:39:10.724Z,96794.72
2023-05-21T19:41:13.414Z,96792.94
2023-05-21T19:43:16.032Z,96800.59
2023-05-21T19:45:21.586Z,96795.78
2023-05-21T19:47:25.741Z,96805.28
2023-05-21T19:49:28.622Z,96801.66
2023-05-21T19:51:31.313Z,96813.81
2023-05-21T19:53:36.912Z,96809.59
2023-05-21T19:55:39.509Z,96816.72
2023-05-21T19:57:42.143Z,96813.34
2023-05-21T19:59:44.760Z,96815.00
2023-05-21T20:01:47.449Z,96818.63
2023-05-21T20:03:51.782Z,96819.47
2023-05-21T20:05:54.560Z,96817.91
2023-05-21T20:07:58.392Z,96825.25
2023-05-21T20:10:00.968Z,96829.44
2023-05-21T20:12:03.711Z,96833.31
2023-05-21T20:14:06.418Z,96828.00
2023-05-21T20:16:10.252Z,96829.34
2023-05-21T20:18:13.238Z,96821.41
2023-05-21T20:20:18.687Z,96817.19
2023-05-21T20:22:21.310Z,96819.38
2023-05-21T20:24:23.918Z,96819.75
2023-05-21T20:26:27.091Z,96823.34
2023-05-21T20:28:29.713Z,96822.75
2023-05-21T20:30:33.380Z,96822.16
2023-05-21T20:32:36.050Z,96822.38
2023-05-21T20:34:47.209Z,96821.53
2023-05-21T20:36:58.941Z,96825.72
2023-05-21T20:39:02.310Z,96820.19
2023-05-21T20:41:06.065Z,96818.53
2023-05-21T20:43:11.831Z,96815.16
2023-05-21T20:45:15.838Z,96817.69
2023-05-21T20:47:20.168Z,96820.31
2023-05-21T20:49:24.652Z,96819.50
2023-05-21T20:51:27.590Z,96817.94
2023-05-21T20:53:32.514Z,96817.00
2023-05-21T20:55:35.523Z,96810.38
2023-05-21T20:57:38.151Z,96812.91
2023-05-21T20:59:40.815Z,96825.13
2023-05-21T21:01:43.451Z,96826.56
2023-05-21T21:03:46.674Z,96821.66
2023-05-21T21:05:49.480Z,96827.03
2023-05-21T21:07:55.499Z,96829.59
2023-05-21T21:09:59.896Z,96828.75
2023-05-21T21:12:14.335Z,96829.69
2023-05-21T21:14:25.647Z,96826.22
2023-05-21T21:16:28.319Z,96835.81
2023-05-21T21:18:30.941Z,96831.25
2023-05-21T21:20:33.590Z,96833.16
2023-05-21T21:22:36.297Z,96836.06
2023-05-21T21:24:38.862Z,96838.22
2023-05-21T21:26:42.807Z,96835.81
2023-05-21T21:28:46.618Z,96830.75
2023-05-21T21:30:49.478Z,96833.63
2023-05-21T21:32:52.151Z,96834.94
2023-05-21T21:34:54.752Z,96830.75
2023-05-21T21:36:57.344Z,96838.78
2023-05-21T21:39:00.322Z,96836.59
2023-05-21T21:41:03.305Z,96843.06
2023-05-21T21:43:07.284Z,96838.28
2023-05-21T21:45:11.025Z,96837.75
2023-05-21T21:47:13.625Z,96840.69
2023-05-21T21:49:17.163Z,96838.19
2023-05-21T21:51:23.113Z,96832.53
2023-05-21T21:53:26.237Z,96830.59
2023-05-21T21:55:29.543Z,96829.66
2023-05-21T21:57:32.289Z,96827.13
2023-05-21T21:59:39.297Z,96824.63
2023-05-21T22:01:41.979Z,96818.25
2023-05-21T22:03:44.599Z,96830.56
2023-05-21T22:05:47.203Z,96829.00
2023-05-21T22:07:49.842Z,96829.84
2023-05-21T22:09:52.436Z,96834.50
2023-05-21T22:11:55.141Z,96830.31
2023-05-21T22:13:57.764Z,96830.31
2023-05-21T22:16:01.948Z,96830.19
2023-05-21T22:18:04.916Z,96826.81
2023-05-21T22:20:08.862Z,96830.75
2023-05-21T22:22:12.053Z,96829.06
2023-05-21T22:24:30.422Z,96837.06
2023-05-21T22:26:34.474Z,96841.41
2023-05-21T22:28:37.139Z,96841.53
2023-05-21T22:30:39.968Z,96842.25
2023-05-21T22:32:44.266Z,96843.81
2023-05-21T22:34:46.911Z,96845.50
2023-05-21T22:36:49.500Z,96839.28
2023-05-21T22:38:52.145Z,96841.91
2023-05-21T22:40:54.843Z,96844.44
2023-05-21T22:42:57.685Z,96843.69
2023-05-21T22:45:00.942Z,96850.03
2023-05-21T22:47:03.765Z,96848.69
2023-05-21T22:49:10.292Z,96846.44
2023-05-21T22:51:14.054Z,96845.25
2023-05-21T22:53:17.296Z,96842.84
2023-05-21T22:55:19.921Z,96835.97
2023-05-21T22:57:22.528Z,96834.72
2023-05-21T22:59:25.180Z,96841.56
2023-05-21T23:01:27.997Z,96837.28
2023-05-21T23:03:31.071Z,96839.91
2023-05-21T23:05:35.066Z,96844.13
2023-05-21T23:07:37.748Z,96838.75
2023-05-21T23:09:41.001Z,96836.81
2023-05-21T23:11:43.696Z,96835.03
2023-05-21T23:13:46.307Z,96837.44
2023-05-21T23:15:50.760Z,96837.56
2023-05-21T23:17:53.375Z,96831.66
2023-05-21T23:19:56.117Z,96832.53
2023-05-21T23:22:00.281Z,96831.47
2023-05-21T23:24:03.288Z,96834.00
2023-05-21T23:26:05.924Z,96832.19
2023-05-21T23:28:08.578Z,96840.00
2023-05-21T23:30:11.953Z,96831.34
2023-05-21T23:32:14.609Z,96833.59
2023-05-21T23:34:17.270Z,96837.19
2023-05-21T23:36:19.994Z,96835.91
2023-05-21T23:38:26.019Z,96837.09
2023-05-21T23:40:28.580Z,96834.59
2023-05-21T23:42:31.226Z,96834.19
2023-05-21T23:44:33.867Z,96832.41
2023-05-21T23:46:36.537Z,96837.44
2023-05-21T23:48:39.546Z,96835.63
2023-05-21T23:50:42.126Z,96832.91
2023-05-21T23:52:44.968Z,96825.72
2023-05-21T23:54:48.950Z,96821.09
2023-05-21T23:56:51.543Z,96831.53
2023-05-21T23:58:54.149Z,96827.00
